createdAt,value
2022-12-23T00:00:05.165Z,8.22
2022-12-23T00:05:01.548Z,8.28
2022-12-23T00:09:58.597Z,8.28
2022-12-23T00:15:06.865Z,8.32
2022-12-23T00:20:04.691Z,8.34
2022-12-23T00:25:01.033Z,8.33
2022-12-23T00:29:57.391Z,8.31
2022-12-23T00:34:53.740Z,8.33
2022-12-23T00:40:08.859Z,8.31
2022-12-23T00:45:15.466Z,8.32
2022-12-23T00:50:12.092Z,8.33
2022-12-23T00:55:08.635Z,8.33
2022-12-23T01:00:05.491Z,8.30
2022-12-23T01:05:20.436Z,8.34
2022-12-23T01:10:16.762Z,8.37
2022-12-23T01:15:13.082Z,8.35
2022-12-23T01:20:09.900Z,8.40
2022-12-23T01:25:06.696Z,8.37
2022-12-23T01:30:03.914Z,8.34
2022-12-23T01:35:00.257Z,8.35
2022-12-23T01:39:57.668Z,8.35
2022-12-23T01:45:14.024Z,8.37
2022-12-23T01:50:19.328Z,8.36
2022-12-23T01:55:20.736Z,8.34
2022-12-23T02:00:35.815Z,8.37
2022-12-23T02:05:32.424Z,8.36
2022-12-23T02:10:41.640Z,8.38
2022-12-23T02:16:06.700Z,8.36
2022-12-23T02:21:27.465Z,8.36
2022-12-23T02:26:33.043Z,8.39
2022-12-23T02:31:42.894Z,8.36
2022-12-23T02:36:59.935Z,8.36
2022-12-23T02:42:05.134Z,8.34
2022-12-23T02:47:10.811Z,8.37
2022-12-23T02:52:13.648Z,8.35
2022-12-23T02:57:12.789Z,8.40
2022-12-23T03:02:09.359Z,8.41
2022-12-23T03:07:08.138Z,8.41
2022-12-23T03:12:17.112Z,8.44
2022-12-23T03:17:25.565Z,8.44
2022-12-23T03:22:35.107Z,8.44
2022-12-23T03:27:39.052Z,8.45
2022-12-23T03:32:58.312Z,8.45
2022-12-23T03:37:55.844Z,8.45
2022-12-23T03:43:01.115Z,8.47
2022-12-23T03:48:04.949Z,8.50
2022-12-23T03:53:12.413Z,8.52
2022-12-23T03:58:20.028Z,8.50
2022-12-23T04:03:25.346Z,8.52
2022-12-23T04:08:34.584Z,8.53
2022-12-23T04:13:31.519Z,8.52
2022-12-23T04:18:28.837Z,8.55
2022-12-23T04:23:25.197Z,8.52
2022-12-23T04:28:21.550Z,8.55
2022-12-23T04:33:17.951Z,8.55
2022-12-23T04:38:14.300Z,8.55
2022-12-23T04:43:10.655Z,8.54
2022-12-23T04:48:07.042Z,8.58
2022-12-23T04:53:03.365Z,8.55
2022-12-23T04:57:59.706Z,8.56
2022-12-23T05:02:56.238Z,8.56
2022-12-23T05:08:03.082Z,8.55
2022-12-23T05:12:59.486Z,8.53
2022-12-23T05:17:55.822Z,8.51
2022-12-23T05:22:52.181Z,8.52
2022-12-23T05:27:48.500Z,8.52
2022-12-23T05:32:44.888Z,8.54
2022-12-23T05:37:41.238Z,8.54
2022-12-23T05:42:37.597Z,8.51
2022-12-23T05:47:34.396Z,8.52
2022-12-23T05:52:30.813Z,8.52
2022-12-23T05:57:27.277Z,8.48
2022-12-23T06:02:24.087Z,8.48
2022-12-23T06:07:20.590Z,8.45
2022-12-23T06:12:16.937Z,8.42
2022-12-23T06:17:13.411Z,8.38
2022-12-23T06:22:09.856Z,8.39
2022-12-23T06:27:06.425Z,8.42
2022-12-23T06:32:03.116Z,8.40
2022-12-23T06:36:59.714Z,8.38
2022-12-23T06:41:56.117Z,8.41
2022-12-23T06:46:52.489Z,8.40
2022-12-23T06:51:48.849Z,8.40
2022-12-23T06:56:45.473Z,8.38
2022-12-23T07:01:41.967Z,8.36
2022-12-23T07:06:39.534Z,8.35
2022-12-23T07:11:35.909Z,8.34
2022-12-23T07:16:32.369Z,8.30
2022-12-23T07:21:30.058Z,8.33
2022-12-23T07:26:26.690Z,8.31
2022-12-23T07:31:23.575Z,8.26
2022-12-23T07:36:20.019Z,8.21
2022-12-23T07:41:16.432Z,8.20
2022-12-23T07:46:12.962Z,8.18
2022-12-23T07:51:09.643Z,7.92
2022-12-23T07:56:06.221Z,7.88
2022-12-23T08:01:05.202Z,7.87
2022-12-23T08:06:12.300Z,7.85
2022-12-23T08:11:10.623Z,7.86
2022-12-23T08:16:07.725Z,7.86
2022-12-23T08:21:07.595Z,7.89
2022-12-23T08:26:09.440Z,7.87
2022-12-23T08:31:18.889Z,7.86
2022-12-23T08:36:23.398Z,7.81
2022-12-23T08:41:26.079Z,7.76
2022-12-23T08:46:23.765Z,7.73
2022-12-23T08:51:22.027Z,7.73
2022-12-23T08:56:21.967Z,7.75
2022-12-23T09:01:20.707Z,7.74
2022-12-23T09:06:29.546Z,7.75
2022-12-23T09:11:28.512Z,7.78
2022-12-23T09:16:25.175Z,7.78
2022-12-23T09:21:23.392Z,7.83
2022-12-23T09:26:25.824Z,7.79
2022-12-23T09:31:23.063Z,7.85
2022-12-23T09:36:20.694Z,7.81
2022-12-23T09:41:38.248Z,7.88
2022-12-23T09:46:42.874Z,7.86
2022-12-23T09:51:39.384Z,7.84
2022-12-23T09:56:54.829Z,7.82
2022-12-23T10:02:20.684Z,7.87
2022-12-23T10:07:41.019Z,7.84
2022-12-23T10:12:42.908Z,7.88
2022-12-23T10:17:41.919Z,7.91
2022-12-23T10:22:44.169Z,7.89
2022-12-23T10:27:42.789Z,7.95
2022-12-23T10:33:19.884Z,7.94
2022-12-23T10:38:28.116Z,8.04
2022-12-23T10:43:46.076Z,8.12
2022-12-23T10:49:12.075Z,8.06
2022-12-23T10:54:18.467Z,8.07
2022-12-23T10:59:17.658Z,8.06
2022-12-23T11:04:18.153Z,8.16
2022-12-23T11:09:24.219Z,8.33
2022-12-23T11:14:40.261Z,8.41
2022-12-23T11:19:37.673Z,8.28
2022-12-23T11:24:39.595Z,8.44
2022-12-23T11:29:44.187Z,8.60
2022-12-23T11:34:45.714Z,8.68
2022-12-23T11:39:46.137Z,8.69
2022-12-23T11:44:47.097Z,8.73
2022-12-23T11:49:52.082Z,8.73
2022-12-23T11:54:59.877Z,8.74
2022-12-23T12:00:00.024Z,8.58
2022-12-23T12:05:01.835Z,8.59
2022-12-23T12:10:01.265Z,8.65
2022-12-23T12:15:00.206Z,8.65
2022-12-23T12:20:10.489Z,8.59
2022-12-23T12:25:20.914Z,8.55
2022-12-23T12:30:20.513Z,8.48
2022-12-23T12:35:20.112Z,8.52
2022-12-23T12:40:38.739Z,8.58
2022-12-23T12:45:45.851Z,8.61
2022-12-23T12:51:01.099Z,8.45
2022-12-23T12:56:05.418Z,8.30
2022-12-23T13:01:16.985Z,8.20
2022-12-23T13:06:21.446Z,8.16
2022-12-23T13:11:44.975Z,8.24
2022-12-23T13:17:03.611Z,8.14
2022-12-23T13:22:08.530Z,8.16
2022-12-23T13:27:11.954Z,7.99
2022-12-23T13:32:21.719Z,8.06
2022-12-23T13:37:32.342Z,7.98
2022-12-23T13:42:35.260Z,7.91
2022-12-23T13:48:04.327Z,7.86
2022-12-23T13:53:21.622Z,7.86
2022-12-23T13:58:24.424Z,7.82
2022-12-23T14:03:24.937Z,7.87
2022-12-23T14:08:26.022Z,7.79
2022-12-23T14:13:40.456Z,7.79
2022-12-23T14:19:04.832Z,7.76
2022-12-23T14:24:29.595Z,7.72
2022-12-23T14:29:42.416Z,7.72
2022-12-23T14:35:17.458Z,7.73
2022-12-23T14:40:53.103Z,7.73
2022-12-23T14:45:54.633Z,7.72
2022-12-23T14:51:13.581Z,7.74
2022-12-23T14:56:14.291Z,7.69
2022-12-23T15:01:15.351Z,7.77
2022-12-23T15:06:17.541Z,7.73
2022-12-23T15:11:25.462Z,7.76
2022-12-23T15:16:30.411Z,7.74
2022-12-23T15:21:33.750Z,7.77
2022-12-23T15:26:32.602Z,7.74
2022-12-23T15:31:35.940Z,7.70
2022-12-23T15:36:36.187Z,7.70
2022-12-23T15:41:41.829Z,7.64
2022-12-23T15:46:40.410Z,7.65
2022-12-23T15:57:03.130Z,7.62
2022-12-23T16:02:32.079Z,7.64
2022-12-23T16:07:39.652Z,7.63
2022-12-23T16:12:43.512Z,7.66
2022-12-23T16:17:40.084Z,7.65
2022-12-23T16:22:37.813Z,7.60
2022-12-23T16:27:41.132Z,7.67
2022-12-23T16:32:47.465Z,7.75
2022-12-23T16:37:47.585Z,7.69
2022-12-23T16:42:47.316Z,7.67
2022-12-23T16:47:44.696Z,7.68
2022-12-23T16:52:41.239Z,7.68
2022-12-23T16:57:38.652Z,7.72
2022-12-23T17:02:35.529Z,7.71
2022-12-23T17:07:31.914Z,7.75
2022-12-23T17:12:28.413Z,7.73
2022-12-23T17:17:25.927Z,7.76
2022-12-23T17:22:22.368Z,7.75
2022-12-23T17:27:20.652Z,7.73
2022-12-23T17:32:18.708Z,7.69
2022-12-23T17:37:20.361Z,7.67
2022-12-23T17:42:25.184Z,7.69
2022-12-23T17:47:22.634Z,7.64
2022-12-23T17:52:21.381Z,7.57
2022-12-23T17:57:20.659Z,7.61
2022-12-23T18:02:35.201Z,7.56
2022-12-23T18:07:31.584Z,7.62
2022-12-23T18:12:35.721Z,7.61
2022-12-23T18:17:32.091Z,7.60
2022-12-23T18:22:28.426Z,7.71
2022-12-23T18:27:24.808Z,7.73
2022-12-23T18:32:24.877Z,7.69
2022-12-23T18:37:23.633Z,7.73
2022-12-23T18:42:20.356Z,7.60
2022-12-23T18:47:16.810Z,7.66
2022-12-23T18:52:13.117Z,7.71
2022-12-23T18:57:10.558Z,7.84
2022-12-23T19:02:09.533Z,7.89
2022-12-23T19:07:06.428Z,7.73
2022-12-23T19:12:03.745Z,7.81
2022-12-23T19:17:00.945Z,7.79
2022-12-23T19:21:57.819Z,7.76
2022-12-23T19:26:54.129Z,7.80
2022-12-23T19:31:50.462Z,7.77
2022-12-23T19:36:46.775Z,7.94
2022-12-23T19:41:43.308Z,7.97
2022-12-23T19:46:39.673Z,7.87
2022-12-23T19:51:36.239Z,7.80
2022-12-23T19:56:32.653Z,7.80
2022-12-23T20:01:29.090Z,7.80
2022-12-23T20:06:28.650Z,7.80
2022-12-23T20:11:26.144Z,7.84
2022-12-23T20:16:23.269Z,7.86
2022-12-23T20:21:20.185Z,7.88
2022-12-23T20:26:17.911Z,7.89
2022-12-23T20:31:23.122Z,7.91
2022-12-23T20:36:22.893Z,7.92
2022-12-23T20:41:22.666Z,7.94
2022-12-23T20:46:19.956Z,7.96
2022-12-23T20:51:19.891Z,8.01
2022-12-23T20:56:17.817Z,8.06
2022-12-23T21:01:14.618Z,8.11
2022-12-23T21:06:10.928Z,8.14
2022-12-23T21:11:07.387Z,8.17
2022-12-23T21:16:06.406Z,8.27
2022-12-23T21:21:04.951Z,8.41
2022-12-23T21:26:10.389Z,8.52
2022-12-23T21:31:07.569Z,8.64
2022-12-23T21:36:05.086Z,8.75
2022-12-23T21:41:07.554Z,8.81
2022-12-23T21:46:12.345Z,8.96
2022-12-23T21:51:13.032Z,8.98
2022-12-23T21:56:12.795Z,9.06
2022-12-23T22:01:17.168Z,9.09
2022-12-23T22:06:25.484Z,9.09
2022-12-23T22:11:25.888Z,9.13
2022-12-23T22:16:24.065Z,9.18
2022-12-23T22:21:23.227Z,9.19
2022-12-23T22:26:26.156Z,9.21
2022-12-23T22:31:31.724Z,9.21
2022-12-23T22:36:28.487Z,9.20
2022-12-23T22:41:27.812Z,9.21
2022-12-23T22:46:24.650Z,9.21
2022-12-23T22:51:23.978Z,9.19
2022-12-23T22:56:21.991Z,9.17
2022-12-23T23:01:30.044Z,9.22
2022-12-23T23:06:29.248Z,9.22
2022-12-23T23:11:26.840Z,9.22
2022-12-23T23:16:24.756Z,9.22
2022-12-23T23:21:21.922Z,9.26
2022-12-23T23:26:19.403Z,9.32
2022-12-23T23:36:32.434Z,9.35
2022-12-23T23:41:28.774Z,9.34
2022-12-23T23:46:25.243Z,9.33
2022-12-23T23:51:21.668Z,9.31
2022-12-23T23:56:23.786Z,9.30
